Time;durP1;ratioP1;P1;durP2;ratioP2;P2;SDS_P1;SDS_P2;PMS_P1;PMS_P2;Temp;Humidity;BMP_temperature;BMP_pressure;BME280_temperature;BME280_humidity;BME280_pressure;Samples;Min_cycle;Max_cycle;Signal;HPM_P1;HPM_P2
2022/08/14 00:01:29;;;;;;;11.23;10.43;;;20.40;43.90;;;;;;2618172;54;20160;-81
2022/08/14 00:07:17;;;;;;;12.13;11.13;;;20.40;48.00;;;;;;2618468;54;20125;-82
2022/08/14 00:13:07;;;;;;;12.70;11.53;;;20.10;50.20;;;;;;2618227;54;20148;-81
2022/08/14 00:18:54;;;;;;;10.87;9.97;;;20.10;57.00;;;;;;2618381;54;20374;-80
2022/08/14 00:24:43;;;;;;;10.57;9.77;;;20.10;53.70;;;;;;2618291;54;20125;-81
2022/08/14 00:30:30;;;;;;;14.33;10.47;;;20.00;57.10;;;;;;2617983;54;20396;-81
2022/08/14 00:36:21;;;;;;;10.87;10.10;;;19.90;54.10;;;;;;2618693;39;20557;-80
2022/08/14 00:42:09;;;;;;;10.43;9.40;;;19.90;57.60;;;;;;2618359;54;20364;-81
2022/08/14 00:47:57;;;;;;;10.80;9.60;;;19.80;58.10;;;;;;2618194;54;20153;-81
2022/08/14 00:53:45;;;;;;;10.13;9.30;;;19.70;57.40;;;;;;2618793;54;20943;-81
2022/08/14 00:59:34;;;;;;;12.03;10.90;;;19.70;66.40;;;;;;2618918;54;20428;-81
2022/08/14 01:05:25;;;;;;;11.30;10.40;;;19.50;66.80;;;;;;2618966;54;20403;-81
2022/08/14 01:11:14;;;;;;;10.67;9.77;;;19.50;75.10;;;;;;2618915;39;20768;-81
2022/08/14 01:17:03;;;;;;;11.33;10.30;;;19.40;82.10;;;;;;2618755;54;20384;-81
2022/08/14 01:22:51;;;;;;;12.23;11.13;;;19.30;84.20;;;;;;2618831;54;20389;-79
2022/08/14 01:28:39;;;;;;;14.03;11.40;;;19.30;87.10;;;;;;2618622;54;20644;-81
2022/08/14 01:31:56;;;;;;;11.87;11.00;;;19.20;89.60;;;;;;2618844;54;20487;-80
2022/08/14 01:34:24;;;;;;;10.73;9.83;;;19.10;91.40;;;;;;2619070;54;20404;-81
2022/08/14 01:40:13;;;;;;;12.30;11.40;;;19.00;95.70;;;;;;2618881;54;20418;-80
2022/08/14 01:46:01;;;;;;;15.30;11.67;;;18.90;97.30;;;;;;2618834;54;20488;-80
2022/08/14 01:51:53;;;;;;;12.33;11.43;;;18.70;98.90;;;;;;2618662;54;20148;-80
2022/08/14 01:57:43;;;;;;;11.13;10.23;;;19.00;98.80;;;;;;2619021;54;20467;-80
2022/08/14 02:10:05;;;;;;;12.23;11.07;;;18.60;99.90;;;;;;2618875;54;20412;-81
2022/08/14 02:15:54;;;;;;;11.60;10.60;;;18.50;99.90;;;;;;2618423;54;20397;-81
2022/08/14 02:21:43;;;;;;;12.27;11.37;;;18.40;99.90;;;;;;2618481;54;20961;-81
2022/08/14 02:24:47;;;;;;;13.87;12.77;;;18.30;99.90;;;;;;2618346;54;20388;-81
2022/08/14 02:27:12;;;;;;;12.53;11.40;;;18.30;99.90;;;;;;2618901;54;20976;-81
2022/08/14 02:33:00;;;;;;;11.57;10.70;;;18.30;99.90;;;;;;2617209;54;20163;-81
2022/08/14 02:35:26;;;;;;;12.43;11.53;;;18.20;99.90;;;;;;2616405;54;20404;-81
2022/08/14 02:37:51;;;;;;;12.50;11.50;;;18.10;99.90;;;;;;2616110;46;20194;-81
2022/08/14 02:43:40;;;;;;;13.03;11.77;;;18.10;99.90;;;;;;2615545;54;20210;-81
2022/08/14 02:49:27;;;;;;;12.67;11.43;;;18.00;99.90;;;;;;2617433;54;20395;-80
2022/08/14 02:58:56;;;;;;;12.50;11.43;;;17.90;99.90;;;;;;2617753;54;20378;-81
2022/08/14 03:04:43;;;;;;;14.10;12.93;;;17.90;99.90;;;;;;2617393;54;20381;-81
2022/08/14 03:10:31;;;;;;;13.97;12.77;;;17.80;99.90;;;;;;2616905;54;20156;-82
2022/08/14 03:16:21;;;;;;;13.43;12.13;;;17.80;99.90;;;;;;2616756;54;20231;-81
2022/08/14 03:22:09;;;;;;;13.30;12.37;;;17.80;99.90;;;;;;2617170;54;20376;-81
2022/08/14 03:27:56;;;;;;;13.60;12.50;;;17.70;99.90;;;;;;2616986;46;20518;-81
2022/08/14 03:33:43;;;;;;;21.13;18.90;;;17.80;99.90;;;;;;2617032;54;20146;-80
2022/08/14 03:39:30;;;;;;;20.23;15.83;;;17.60;99.90;;;;;;2616793;54;20154;-81
2022/08/14 03:45:17;;;;;;;14.70;13.30;;;17.40;99.90;;;;;;2615164;54;21306;-81
2022/08/14 03:51:09;;;;;;;14.13;12.93;;;17.50;99.90;;;;;;2616870;47;20117;-81
2022/08/14 03:56:59;;;;;;;14.63;13.53;;;17.30;99.90;;;;;;2618199;54;20417;-80
2022/08/14 04:02:48;;;;;;;15.93;14.40;;;17.30;99.90;;;;;;2619184;39;20742;-81
2022/08/14 04:08:40;;;;;;;14.00;12.70;;;17.40;99.90;;;;;;2617379;39;20752;-81
2022/08/14 04:14:27;;;;;;;14.53;13.33;;;17.30;99.90;;;;;;2617065;54;20432;-81
2022/08/14 04:20:15;;;;;;;15.60;14.00;;;17.30;99.90;;;;;;2616979;54;20378;-81
2022/08/14 04:26:05;;;;;;;14.63;13.53;;;17.30;99.90;;;;;;2617166;39;20557;-80
2022/08/14 04:31:52;;;;;;;15.93;14.50;;;17.40;99.90;;;;;;2617714;54;20966;-81
2022/08/14 04:43:45;;;;;;;16.07;14.37;;;17.20;99.90;;;;;;2617597;54;20402;-81
2022/08/14 04:46:16;;;;;;;16.33;14.80;;;17.20;99.90;;;;;;2616592;46;20398;-81
2022/08/14 04:48:42;;;;;;;14.37;13.23;;;17.20;99.90;;;;;;2617545;46;20231;-81
2022/08/14 04:54:29;;;;;;;15.57;14.33;;;17.40;99.90;;;;;;2617750;54;20119;-81
2022/08/14 05:00:16;;;;;;;15.37;13.83;;;17.50;99.90;;;;;;2617723;54;20556;-82
2022/08/14 05:06:06;;;;;;;14.60;13.13;;;17.70;99.90;;;;;;2617518;54;20142;-81
2022/08/14 05:11:53;;;;;;;24.23;14.77;;;18.00;99.90;;;;;;2617796;54;20373;-81
2022/08/14 05:17:42;;;;;;;15.73;14.23;;;18.50;99.90;;;;;;2617201;54;20131;-81
2022/08/14 05:23:31;;;;;;;14.53;13.23;;;19.00;99.90;;;;;;2617307;54;20365;-80
2022/08/14 05:29:18;;;;;;;19.23;15.20;;;19.40;99.90;;;;;;2617444;54;20364;-79
2022/08/14 05:35:06;;;;;;;18.50;16.80;;;20.00;99.90;;;;;;2617042;54;20137;-79
2022/08/14 05:40:53;;;;;;;17.57;15.90;;;21.70;90.20;;;;;;2617230;54;20365;-79
2022/08/14 05:46:40;;;;;;;17.33;15.83;;;22.30;68.60;;;;;;2617077;54;21775;-80
2022/08/14 05:52:28;;;;;;;17.17;15.70;;;22.80;55.90;;;;;;2615441;54;20754;-80
2022/08/14 05:58:16;;;;;;;14.67;13.13;;;23.30;49.50;;;;;;2617320;54;20398;-80
2022/08/14 06:04:03;;;;;;;15.87;14.67;;;24.00;43.50;;;;;;2617387;54;20699;-80
2022/08/14 06:09:50;;;;;;;17.23;15.93;;;23.50;36.20;;;;;;2617231;54;20183;-80
2022/08/14 06:15:37;;;;;;;17.47;16.17;;;24.50;35.20;;;;;;2617322;54;20665;-80
2022/08/14 06:21:24;;;;;;;16.47;15.20;;;25.40;27.60;;;;;;2617050;54;20638;-80
2022/08/14 06:27:11;;;;;;;17.30;14.80;;;25.60;24.40;;;;;;2617050;54;20139;-79
2022/08/14 06:32:59;;;;;;;16.00;14.70;;;25.80;23.30;;;;;;2616679;54;20120;-79
2022/08/14 06:38:46;;;;;;;16.40;14.90;;;25.90;19.40;;;;;;2617084;46;20418;-79
2022/08/14 06:47:55;;;;;;;13.80;12.90;;;26.60;17.10;;;;;;2617360;54;20438;-79
2022/08/14 06:53:42;;;;;;;15.20;14.10;;;26.80;13.10;;;;;;2615631;54;20144;-79
2022/08/14 06:59:29;;;;;;;14.43;13.23;;;27.40;12.10;;;;;;2616765;54;20189;-80
2022/08/14 07:11:22;;;;;;;14.00;12.70;;;27.80;6.30;;;;;;2616862;54;21042;-80
2022/08/14 07:17:09;;;;;;;14.37;13.17;;;27.60;7.50;;;;;;2617045;54;20538;-80
2022/08/14 07:22:59;;;;;;;15.37;14.10;;;27.70;7.50;;;;;;2617180;54;20157;-79
2022/08/14 07:28:46;;;;;;;14.50;13.37;;;27.60;7.00;;;;;;2616838;54;20398;-78
2022/08/14 07:34:33;;;;;;;15.30;14.30;;;27.80;6.60;;;;;;2617371;54;20172;-79
2022/08/14 07:40:20;;;;;;;15.23;14.23;;;28.30;4.70;;;;;;2617166;54;20141;-80
2022/08/14 07:46:07;;;;;;;14.93;13.80;;;28.30;5.30;;;;;;2616924;54;20708;-80
2022/08/14 07:51:55;;;;;;;13.47;12.50;;;28.60;3.80;;;;;;2616622;54;20681;-80
2022/08/14 07:57:44;;;;;;;13.10;12.30;;;28.20;4.20;;;;;;2616130;54;21044;-80
2022/08/14 08:03:39;;;;;;;14.37;13.30;;;29.10;2.90;;;;;;2617530;31;20877;-79
2022/08/14 08:09:28;;;;;;;13.90;13.00;;;29.50;3.10;;;;;;2617164;54;20373;-79
2022/08/14 08:12:31;;;;;;;13.37;12.63;;;29.50;2.40;;;;;;2616721;47;20495;-80
2022/08/14 08:14:59;;;;;;;13.83;12.93;;;29.40;1.10;;;;;;2616569;54;20557;-79
2022/08/14 08:20:48;;;;;;;13.13;12.07;;;29.30;1.70;;;;;;2616645;54;20435;-80
2022/08/14 08:26:35;;;;;;;14.67;13.67;;;29.70;1.00;;;;;;2616621;54;20372;-80
2022/08/14 08:32:23;;;;;;;14.17;13.23;;;29.90;1.00;;;;;;2616906;54;20702;-80
2022/08/14 08:38:13;;;;;;;14.13;13.10;;;30.30;1.00;;;;;;2616662;54;20363;-80
2022/08/14 08:44:04;;;;;;;12.93;12.03;;;30.10;1.00;;;;;;2616610;54;20984;-79
2022/08/14 08:49:52;;;;;;;20.00;13.70;;;30.70;1.00;;;;;;2616710;54;20450;-80
2022/08/14 08:55:42;;;;;;;12.40;11.70;;;30.40;1.00;;;;;;2616485;54;20483;-79
2022/08/14 09:01:30;;;;;;;12.27;11.47;;;30.10;1.00;;;;;;2615394;54;21052;-80
2022/08/14 09:04:03;;;;;;;12.97;12.17;;;29.60;1.00;;;;;;2614600;47;21441;-80
2022/08/14 09:06:28;;;;;;;12.57;11.80;;;30.00;1.00;;;;;;2617127;39;20619;-79
2022/08/14 09:12:17;;;;;;;13.10;12.30;;;30.90;1.00;;;;;;2616728;54;20119;-80
2022/08/14 09:18:06;;;;;;;12.93;12.10;;;31.70;1.00;;;;;;2617243;54;20967;-80
2022/08/14 09:23:54;;;;;;;13.47;12.37;;;31.30;1.00;;;;;;2617319;54;20402;-81
2022/08/14 09:29:41;;;;;;;12.07;10.83;;;31.90;1.00;;;;;;2617094;54;20403;-80
2022/08/14 09:45:49;;;;;;;10.83;10.23;;;30.70;1.00;;;;;;2617401;54;20416;-79
2022/08/14 09:51:41;;;;;;;10.27;9.67;;;30.30;1.00;;;;;;2617349;54;20400;-79
2022/08/14 09:57:30;;;;;;;11.53;10.83;;;32.20;1.00;;;;;;2617250;54;20367;-79
2022/08/14 10:03:32;;;;;;;11.50;10.70;;;32.50;1.00;;;;;;2616963;54;20485;-79
2022/08/14 10:13:00;;;;;;;9.50;9.00;;;32.70;1.00;;;;;;2617459;54;20403;-79
2022/08/14 10:18:50;;;;;;;11.43;10.63;;;32.70;1.00;;;;;;2617653;54;20456;-80
2022/08/14 10:24:41;;;;;;;10.77;9.97;;;32.70;1.00;;;;;;2618546;54;20365;-79
2022/08/14 10:30:35;;;;;;;12.10;11.07;;;33.40;1.00;;;;;;2618718;54;20406;-78
2022/08/14 10:36:31;;;;;;;12.20;11.30;;;33.60;1.00;;;;;;2618869;39;20749;-79
2022/08/14 10:42:19;;;;;;;11.23;10.53;;;32.20;1.00;;;;;;2618703;54;20430;-79
2022/08/14 10:48:16;;;;;;;10.80;10.20;;;32.70;1.00;;;;;;2618598;54;20410;-79
2022/08/14 10:54:08;;;;;;;10.83;10.13;;;33.20;1.00;;;;;;2617247;54;20551;-79
2022/08/14 10:59:57;;;;;;;10.23;9.73;;;33.50;1.00;;;;;;2617176;54;20391;-80
2022/08/14 11:05:50;;;;;;;9.73;9.13;;;32.50;1.00;;;;;;2617351;54;20375;-79
2022/08/14 11:11:55;;;;;;;11.97;10.93;;;31.90;1.00;;;;;;2617458;47;20383;-78
2022/08/14 11:17:46;;;;;;;10.43;9.77;;;32.60;1.00;;;;;;2616990;39;20666;-79
2022/08/14 11:23:37;;;;;;;9.33;8.73;;;33.00;1.00;;;;;;2617449;54;20372;-80
2022/08/14 11:29:24;;;;;;;12.63;11.73;;;32.70;1.00;;;;;;2617282;54;20379;-81
2022/08/14 11:35:14;;;;;;;11.43;10.53;;;33.80;1.00;;;;;;2617308;54;20407;-80
2022/08/14 11:41:01;;;;;;;11.30;10.60;;;34.50;1.00;;;;;;2617415;39;20818;-80
2022/08/14 11:46:48;;;;;;;13.23;9.67;;;34.00;1.00;;;;;;2617433;54;20153;-80
2022/08/14 11:52:36;;;;;;;9.73;9.20;;;33.20;1.00;;;;;;2618572;54;20118;-79
2022/08/14 11:58:31;;;;;;;10.03;9.53;;;34.70;1.00;;;;;;2618288;54;20136;-79
2022/08/14 12:04:20;;;;;;;10.97;10.37;;;33.30;1.00;;;;;;2616831;54;20383;-80
2022/08/14 12:14:21;;;;;;;11.40;10.60;;;34.80;1.00;;;;;;2617470;39;20814;-78
2022/08/14 12:20:09;;;;;;;10.63;9.93;;;34.10;1.00;;;;;;2616865;54;20959;-78
2022/08/14 12:26:06;;;;;;;11.00;10.40;;;34.70;1.00;;;;;;2617170;54;20419;-79
2022/08/14 12:32:02;;;;;;;11.73;10.93;;;35.40;1.00;;;;;;2617008;39;20520;-79
2022/08/14 12:37:51;;;;;;;11.93;11.17;;;35.80;1.00;;;;;;2616690;54;20354;-79
2022/08/14 12:43:46;;;;;;;11.60;10.77;;;33.30;1.00;;;;;;2616897;54;20379;-78
2022/08/14 12:49:34;;;;;;;10.50;9.90;;;34.10;1.00;;;;;;2617185;54;20394;-78
2022/08/14 12:55:21;;;;;;;11.63;10.90;;;35.50;1.00;;;;;;2618135;39;20800;-79
2022/08/14 13:01:08;;;;;;;11.73;11.00;;;35.10;1.00;;;;;;2617429;54;20231;-80
2022/08/14 13:07:06;;;;;;;11.97;11.27;;;34.00;1.00;;;;;;2618321;39;20555;-79
2022/08/14 13:09:54;;;;;;;11.03;10.43;;;33.00;1.00;;;;;;2617460;47;20387;-79
2022/08/14 13:12:26;;;;;;;11.83;11.10;;;32.60;1.00;;;;;;2617147;54;21001;-80
2022/08/14 13:18:15;;;;;;;14.53;13.43;;;32.80;1.00;;;;;;2617535;54;21868;-79
2022/08/14 13:24:03;;;;;;;12.27;11.27;;;31.60;1.00;;;;;;2616902;54;20385;-78
2022/08/14 13:29:52;;;;;;;12.90;12.10;;;32.90;1.00;;;;;;2617556;54;20426;-78
2022/08/14 13:35:41;;;;;;;10.90;10.20;;;33.40;1.00;;;;;;2617740;54;20399;-78
2022/08/14 13:41:29;;;;;;;11.50;10.80;;;33.20;1.00;;;;;;2617600;54;20389;-78
2022/08/14 13:47:18;;;;;;;11.83;10.87;;;32.90;1.00;;;;;;2617172;54;20397;-78
2022/08/14 13:53:08;;;;;;;11.73;11.03;;;35.40;1.00;;;;;;2617307;46;20420;-79
2022/08/14 13:59:00;;;;;;;11.50;10.90;;;34.10;1.00;;;;;;2617275;54;20383;-78
2022/08/14 14:04:48;;;;;;;11.83;11.13;;;34.50;1.00;;;;;;2617243;54;21381;-78
2022/08/14 14:07:51;;;;;;;11.50;10.90;;;34.20;1.00;;;;;;2616967;46;20392;-79
2022/08/14 14:10:20;;;;;;;11.00;10.30;;;34.00;1.00;;;;;;2616407;47;20396;-77
2022/08/14 14:12:48;;;;;;;11.67;10.93;;;33.40;1.00;;;;;;2616546;47;20419;-79
2022/08/14 14:15:17;;;;;;;10.10;9.43;;;32.80;1.00;;;;;;2617367;54;20416;-80
2022/08/14 14:21:05;;;;;;;9.80;9.20;;;33.80;1.00;;;;;;2617414;54;20395;-79
2022/08/14 14:26:57;;;;;;;9.90;9.37;;;34.60;1.00;;;;;;2617456;54;20390;-79
2022/08/14 14:32:46;;;;;;;9.63;9.03;;;33.70;1.00;;;;;;2617440;54;20384;-79
2022/08/14 14:38:39;;;;;;;9.77;9.20;;;34.70;1.00;;;;;;2617124;54;20376;-78
2022/08/14 14:44:33;;;;;;;8.77;8.37;;;34.40;1.00;;;;;;2618630;54;20388;-79
2022/08/14 14:50:22;;;;;;;9.13;8.63;;;34.60;1.00;;;;;;2617345;54;21027;-79
2022/08/14 14:56:10;;;;;;;9.93;8.93;;;36.10;1.00;;;;;;2617147;54;20528;-78
2022/08/14 15:05:20;;;;;;;8.77;8.27;;;36.30;1.00;;;;;;2617033;54;20359;-79
2022/08/14 15:11:07;;;;;;;9.13;8.60;;;36.50;1.00;;;;;;2617010;54;20475;-78
2022/08/14 15:20:46;;;;;;;10.40;9.80;;;36.70;1.00;;;;;;2616989;54;20419;-78
2022/08/14 15:26:34;;;;;;;9.40;8.80;;;32.70;1.00;;;;;;2617851;39;20819;-77
2022/08/14 15:32:21;;;;;;;10.37;9.67;;;33.40;1.00;;;;;;2618165;31;20868;-78
2022/08/14 15:41:30;;;;;;;9.50;9.00;;;35.10;1.00;;;;;;2616951;54;20444;-78
2022/08/14 15:47:20;;;;;;;11.47;10.67;;;36.00;1.00;;;;;;2616729;54;20244;-77
2022/08/14 15:53:07;;;;;;;9.50;9.00;;;35.80;1.00;;;;;;2616696;54;20404;-79
2022/08/14 16:02:16;;;;;;;11.47;10.57;;;36.00;1.00;;;;;;2617257;54;20424;-79
2022/08/14 16:08:07;;;;;;;10.00;9.50;;;34.90;1.00;;;;;;2617111;54;20381;-79
2022/08/14 16:17:20;;;;;;;11.20;10.47;;;33.00;1.00;;;;;;2616880;54;20407;-79
2022/08/14 16:23:10;;;;;;;11.10;10.40;;;32.10;1.00;;;;;;2616810;54;20391;-79
2022/08/14 16:29:03;;;;;;;10.50;9.90;;;33.70;1.00;;;;;;2618210;39;20794;-77
2022/08/14 16:34:52;;;;;;;10.43;9.80;;;33.80;1.00;;;;;;2617964;39;20786;-79
2022/08/14 16:40:42;;;;;;;10.10;9.60;;;35.90;1.00;;;;;;2617892;54;20399;-79
2022/08/14 16:46:33;;;;;;;14.97;13.93;;;35.80;1.00;;;;;;2618000;54;20375;-79
2022/08/14 16:52:20;;;;;;;20.87;19.70;;;34.40;1.00;;;;;;2617656;54;20484;-79
2022/08/14 16:58:08;;;;;;;15.13;14.17;;;33.60;1.00;;;;;;2618954;54;20119;-79
2022/08/14 17:10:27;;;;;;;14.60;13.73;;;31.90;1.00;;;;;;2617509;54;20391;-79
2022/08/14 17:13:36;;;;;;;10.67;10.00;;;31.60;1.00;;;;;;2617511;54;20398;-79
2022/08/14 17:16:14;;;;;;;10.03;9.33;;;31.50;1.00;;;;;;2617479;46;20576;-78
2022/08/14 17:22:01;;;;;;;10.30;9.63;;;31.30;1.00;;;;;;2617392;54;20402;-79
2022/08/14 17:28:12;;;;;;;10.17;9.40;;;31.00;1.00;;;;;;2617738;54;20394;-78
2022/08/14 17:34:01;;;;;;;10.23;9.43;;;30.90;1.00;;;;;;2617783;39;20756;-80
2022/08/14 17:49:54;;;;;;;10.63;9.93;;;30.60;1.00;;;;;;2617860;39;20756;-78
2022/08/14 17:55:44;;;;;;;10.03;9.43;;;30.30;1.00;;;;;;2617561;54;20163;-79
2022/08/14 18:01:36;;;;;;;10.50;9.50;;;30.10;1.00;;;;;;2617875;54;20384;-78
2022/08/14 18:10:45;;;;;;;10.37;9.57;;;29.80;1.00;;;;;;2617725;54;20365;-79
2022/08/14 18:13:37;;;;;;;9.50;8.90;;;29.70;1.00;;;;;;2617497;46;20579;-79
2022/08/14 18:16:03;;;;;;;10.47;9.87;;;29.60;1.00;;;;;;2617553;47;20156;-78
2022/08/14 18:21:59;;;;;;;11.40;10.33;;;29.50;1.00;;;;;;2617812;54;20402;-79
2022/08/14 18:27:48;;;;;;;10.73;9.93;;;29.30;1.00;;;;;;2617853;54;21064;-79
2022/08/14 18:33:36;;;;;;;11.67;10.87;;;29.00;1.00;;;;;;2619045;54;20377;-79
2022/08/14 18:39:34;;;;;;;11.60;10.80;;;28.70;1.00;;;;;;2619093;54;20410;-78
2022/08/14 18:51:38;;;;;;;10.60;9.80;;;28.50;1.00;;;;;;2619216;54;20406;-79
2022/08/14 18:57:25;;;;;;;11.57;10.60;;;28.20;1.00;;;;;;2619110;54;20417;-80
2022/08/14 19:03:35;;;;;;;10.60;10.00;;;28.20;1.00;;;;;;2619567;39;20522;-80
2022/08/14 19:09:51;;;;;;;12.20;10.70;;;27.80;1.00;;;;;;2618733;54;20474;-80
2022/08/14 19:19:05;;;;;;;12.97;11.97;;;27.20;2.70;;;;;;2618161;54;20410;-80
2022/08/14 19:24:52;;;;;;;12.37;11.20;;;26.90;3.00;;;;;;2617874;54;20389;-80
2022/08/14 19:30:40;;;;;;;12.20;11.10;;;26.70;4.10;;;;;;2617550;54;20150;-78
2022/08/14 19:43:06;;;;;;;12.53;11.63;;;26.30;6.60;;;;;;2617708;54;20364;-81
2022/08/14 19:48:54;;;;;;;11.90;11.00;;;26.10;9.30;;;;;;2618407;54;20399;-81
2022/08/14 19:54:42;;;;;;;11.50;10.60;;;26.00;9.80;;;;;;2617603;54;20516;-81
2022/08/14 20:00:29;;;;;;;14.50;13.37;;;25.90;10.80;;;;;;2617640;54;20694;-81
2022/08/14 20:03:32;;;;;;;14.17;13.10;;;25.80;13.20;;;;;;2617776;46;20388;-81
2022/08/14 20:09:42;;;;;;;13.00;11.80;;;25.60;16.50;;;;;;2617717;54;20356;-81
2022/08/14 20:15:35;;;;;;;13.03;12.13;;;25.40;18.10;;;;;;2618197;54;20404;-82
2022/08/14 20:21:24;;;;;;;14.23;13.00;;;25.40;16.90;;;;;;2617330;54;20446;-81
2022/08/14 20:27:25;;;;;;;20.23;18.47;;;25.20;19.90;;;;;;2618350;39;20774;-81
2022/08/14 20:33:15;;;;;;;16.47;14.97;;;25.20;20.50;;;;;;2617977;54;20513;-81
2022/08/14 20:39:08;;;;;;;16.23;14.90;;;25.00;22.60;;;;;;2619240;54;20382;-81
2022/08/14 20:58:04;;;;;;;18.03;16.43;;;24.90;26.00;;;;;;2617482;54;20472;-81
2022/08/14 21:03:56;;;;;;;14.53;12.90;;;24.70;26.00;;;;;;2617599;54;20366;-81
2022/08/14 21:09:49;;;;;;;12.20;11.30;;;24.80;24.10;;;;;;2617369;54;21205;-81
2022/08/14 21:15:36;;;;;;;11.87;10.87;;;24.40;28.30;;;;;;2618382;54;20371;-80
2022/08/14 21:24:45;;;;;;;12.40;11.40;;;23.90;36.80;;;;;;2618270;39;20819;-81
2022/08/14 21:30:32;;;;;;;12.57;11.37;;;23.70;40.50;;;;;;2617927;54;20197;-81
2022/08/14 21:36:19;;;;;;;12.77;11.47;;;23.70;43.60;;;;;;2618720;54;20117;-80
2022/08/14 21:42:07;;;;;;;12.30;11.40;;;23.60;47.90;;;;;;2618557;54;20152;-82
2022/08/14 21:47:55;;;;;;;11.83;10.93;;;23.40;50.60;;;;;;2618356;54;20190;-81
2022/08/14 21:53:43;;;;;;;12.70;11.53;;;23.20;56.30;;;;;;2618367;54;20414;-79
2022/08/14 21:59:31;;;;;;;12.93;11.63;;;23.10;61.70;;;;;;2617963;54;20399;-79
2022/08/14 22:05:19;;;;;;;12.53;11.47;;;23.20;58.10;;;;;;2618417;54;20389;-79
2022/08/14 22:14:28;;;;;;;13.83;12.47;;;22.80;67.80;;;;;;2618315;54;20367;-80
2022/08/14 22:20:17;;;;;;;13.33;12.07;;;22.60;70.70;;;;;;2618429;54;20399;-80
2022/08/14 22:26:05;;;;;;;11.27;10.30;;;22.50;72.50;;;;;;2618311;54;20536;-80
2022/08/14 22:35:41;;;;;;;13.80;12.60;;;22.30;80.50;;;;;;2619626;54;20437;-80
2022/08/14 22:41:28;;;;;;;13.27;12.10;;;22.20;83.30;;;;;;2619440;54;20485;-80
2022/08/14 22:47:17;;;;;;;13.77;12.37;;;22.10;90.60;;;;;;2619160;39;20510;-80
2022/08/14 22:53:05;;;;;;;13.87;12.83;;;22.00;93.70;;;;;;2618716;54;20383;-80
2022/08/14 22:58:53;;;;;;;12.50;11.63;;;22.00;95.20;;;;;;2617660;54;20115;-81
2022/08/14 23:04:42;;;;;;;12.47;11.50;;;21.90;96.90;;;;;;2618094;31;20814;-80
2022/08/14 23:10:29;;;;;;;11.90;10.90;;;21.70;99.90;;;;;;2617460;54;20402;-80
2022/08/14 23:16:17;;;;;;;11.80;10.77;;;21.60;96.80;;;;;;2617131;54;20209;-80
2022/08/14 23:22:05;;;;;;;13.90;12.73;;;21.50;97.70;;;;;;2617185;54;20355;-81
2022/08/14 23:27:52;;;;;;;11.57;10.70;;;21.40;99.90;;;;;;2617116;54;20377;-81
2022/08/14 23:33:42;;;;;;;11.93;10.80;;;21.30;99.90;;;;;;2614887;54;20470;-81
2022/08/14 23:39:32;;;;;;;13.03;11.83;;;21.20;99.90;;;;;;2617363;54;20453;-80
2022/08/14 23:45:20;;;;;;;13.03;12.00;;;21.20;99.90;;;;;;2616981;54;20396;-80
2022/08/14 23:51:09;;;;;;;14.40;11.70;;;21.10;99.90;;;;;;2616934;54;20201;-80
2022/08/14 23:56:56;;;;;;;13.73;12.50;;;21.00;99.90;;;;;;2617183;54;20415;-80
